Time;durP1;ratioP1;P1;durP2;ratioP2;P2;SDS_P1;SDS_P2;PMS_P1;PMS_P2;Temp;Humidity;BMP_temperature;BMP_pressure;BME280_temperature;BME280_humidity;BME280_pressure;Samples;Min_cycle;Max_cycle;Signal;HPM_P1;HPM_P2
2022/11/12 00:01:08;;;;;;;4.90;4.50;;;;;;;;;;4935446;29;20297;-74
2022/11/12 00:03:52;;;;;;;5.07;4.57;;;;;;;;;;4922380;29;20273;-73
2022/11/12 00:06:37;;;;;;;4.30;3.90;;;;;;;;;;4936293;29;20229;-74
2022/11/12 00:09:21;;;;;;;4.27;3.73;;;;;;;;;;4936118;28;20304;-74
2022/11/12 00:12:08;;;;;;;4.70;4.07;;;;;;;;;;4921914;29;20229;-73
2022/11/12 00:14:52;;;;;;;3.70;3.40;;;;;;;;;;4950066;28;20728;-74
2022/11/12 00:17:37;;;;;;;3.47;3.17;;;;;;;;;;4950283;28;20250;-73
2022/11/12 00:20:21;;;;;;;3.70;3.40;;;;;;;;;;4935712;29;20265;-73
2022/11/12 00:23:05;;;;;;;3.50;3.27;;;;;;;;;;4923044;29;20382;-74
2022/11/12 00:25:57;;;;;;;3.40;3.10;;;;;;;;;;4936113;29;20310;-73
2022/11/12 00:28:44;;;;;;;3.27;3.00;;;;;;;;;;4952401;28;20242;-74
2022/11/12 00:31:28;;;;;;;3.27;2.90;;;;;;;;;;4949850;28;20229;-74
2022/11/12 00:34:12;;;;;;;3.23;2.93;;;;;;;;;;4949783;29;20326;-72
2022/11/12 00:36:57;;;;;;;3.20;3.00;;;;;;;;;;4953578;28;20237;-74
2022/11/12 00:39:40;;;;;;;2.83;2.63;;;;;;;;;;4936079;28;20632;-73
2022/11/12 00:42:25;;;;;;;3.87;2.60;;;;;;;;;;4935141;29;20229;-73
2022/11/12 00:45:09;;;;;;;4.97;2.93;;;;;;;;;;4949379;28;20273;-72
2022/11/12 00:47:55;;;;;;;2.50;2.37;;;;;;;;;;4934262;29;20230;-73
2022/11/12 00:50:41;;;;;;;2.80;2.60;;;;;;;;;;4929640;28;20241;-73
2022/11/12 00:53:25;;;;;;;3.20;2.57;;;;;;;;;;4947132;28;20229;-72
2022/11/12 00:56:09;;;;;;;3.00;2.80;;;;;;;;;;4921075;29;20281;-74
2022/11/12 00:58:56;;;;;;;2.97;2.67;;;;;;;;;;4922523;29;20254;-73
2022/11/12 01:01:40;;;;;;;2.93;2.53;;;;;;;;;;4920976;29;20305;-74
2022/11/12 01:04:24;;;;;;;2.97;2.57;;;;;;;;;;4948084;28;20229;-73
2022/11/12 01:07:08;;;;;;;2.67;2.47;;;;;;;;;;4949440;29;20733;-73
2022/11/12 01:09:55;;;;;;;2.53;2.33;;;;;;;;;;4948897;28;20254;-73
2022/11/12 01:12:41;;;;;;;2.43;2.27;;;;;;;;;;4935606;29;20234;-73
2022/11/12 01:15:25;;;;;;;2.30;2.10;;;;;;;;;;4935513;29;20237;-74
2022/11/12 01:18:12;;;;;;;2.07;1.97;;;;;;;;;;4949934;29;20281;-73
2022/11/12 01:21:02;;;;;;;3.30;1.80;;;;;;;;;;4935864;29;20281;-73
2022/11/12 01:23:47;;;;;;;3.57;1.70;;;;;;;;;;4934261;29;20245;-74
2022/11/12 01:26:30;;;;;;;2.50;1.80;;;;;;;;;;4934807;29;20234;-73
2022/11/12 01:29:17;;;;;;;1.90;1.80;;;;;;;;;;4927748;29;20285;-73
2022/11/12 01:32:04;;;;;;;2.13;2.03;;;;;;;;;;4938366;28;20663;-73
2022/11/12 01:34:49;;;;;;;3.00;2.70;;;;;;;;;;4921994;29;20366;-73
2022/11/12 01:37:34;;;;;;;2.77;2.53;;;;;;;;;;4949147;28;20225;-73
2022/11/12 01:40:20;;;;;;;3.40;3.10;;;;;;;;;;4921896;29;20787;-74
2022/11/12 01:43:11;;;;;;;3.70;3.40;;;;;;;;;;4947961;29;20313;-74
2022/11/12 01:45:55;;;;;;;3.43;3.13;;;;;;;;;;4948385;29;20238;-73
2022/11/12 01:48:47;;;;;;;3.70;3.33;;;;;;;;;;4921732;28;20286;-76
2022/11/12 01:51:34;;;;;;;3.60;3.13;;;;;;;;;;4928627;29;20282;-74
2022/11/12 01:54:21;;;;;;;3.57;3.27;;;;;;;;;;4952424;28;20242;-73
2022/11/12 01:57:05;;;;;;;4.90;3.70;;;;;;;;;;4948314;28;20238;-73
2022/11/12 01:59:50;;;;;;;3.53;3.17;;;;;;;;;;4935391;29;20358;-73
2022/11/12 02:02:37;;;;;;;3.53;3.23;;;;;;;;;;4927376;28;20221;-73
2022/11/12 02:05:21;;;;;;;3.47;3.17;;;;;;;;;;4942295;28;20241;-73
2022/11/12 02:08:06;;;;;;;3.83;3.53;;;;;;;;;;4937849;28;20321;-73
2022/11/12 02:10:50;;;;;;;3.77;3.10;;;;;;;;;;4938817;29;20615;-73
2022/11/12 02:14:20;;;;;;;3.63;3.10;;;;;;;;;;4951791;28;20241;-73
2022/11/12 02:16:43;;;;;;;3.10;2.90;;;;;;;;;;4937740;29;20241;-73
2022/11/12 02:19:27;;;;;;;2.93;2.73;;;;;;;;;;4937797;29;20238;-73
2022/11/12 02:22:16;;;;;;;3.47;3.07;;;;;;;;;;4950775;28;20233;-73
2022/11/12 02:25:00;;;;;;;3.77;2.93;;;;;;;;;;4950761;28;20234;-74
2022/11/12 02:27:44;;;;;;;3.43;2.63;;;;;;;;;;4932385;29;20354;-73
2022/11/12 02:30:32;;;;;;;3.80;2.67;;;;;;;;;;4951687;28;20266;-74
2022/11/12 02:33:16;;;;;;;3.07;2.67;;;;;;;;;;4950860;28;20274;-73
2022/11/12 02:36:00;;;;;;;3.10;2.80;;;;;;;;;;4946575;29;20273;-73
2022/11/12 02:38:44;;;;;;;3.00;2.70;;;;;;;;;;4964790;28;20779;-73
2022/11/12 02:41:29;;;;;;;2.70;2.43;;;;;;;;;;4950201;28;20404;-73
2022/11/12 02:44:16;;;;;;;2.90;2.70;;;;;;;;;;4932966;29;20234;-73
2022/11/12 02:47:02;;;;;;;4.17;2.83;;;;;;;;;;4938673;29;20238;-73
2022/11/12 02:49:52;;;;;;;2.70;2.50;;;;;;;;;;4937722;29;20233;-73
2022/11/12 02:52:41;;;;;;;3.30;2.60;;;;;;;;;;4949342;28;20890;-73
2022/11/12 02:55:28;;;;;;;2.60;2.40;;;;;;;;;;4950597;28;20290;-73
2022/11/12 02:58:12;;;;;;;3.97;2.80;;;;;;;;;;4923909;29;20711;-73
2022/11/12 03:00:56;;;;;;;2.93;2.53;;;;;;;;;;4937680;29;20310;-73
2022/11/12 03:03:42;;;;;;;3.10;2.80;;;;;;;;;;4937687;29;20244;-74
2022/11/12 03:06:26;;;;;;;2.33;2.23;;;;;;;;;;4937093;29;20225;-72
2022/11/12 03:09:11;;;;;;;3.00;2.80;;;;;;;;;;4923846;29;20339;-74
2022/11/12 03:11:57;;;;;;;3.00;2.80;;;;;;;;;;4923335;29;20229;-75
2022/11/12 03:14:44;;;;;;;2.30;2.20;;;;;;;;;;4928532;28;20608;-73
2022/11/12 03:17:31;;;;;;;2.93;2.63;;;;;;;;;;4944251;28;20655;-74
2022/11/12 03:20:18;;;;;;;2.47;2.27;;;;;;;;;;4936573;29;20245;-73
2022/11/12 03:23:06;;;;;;;2.80;2.60;;;;;;;;;;4936558;29;20663;-73
2022/11/12 03:25:51;;;;;;;2.67;2.47;;;;;;;;;;4930870;29;20297;-73
2022/11/12 03:28:37;;;;;;;2.80;2.40;;;;;;;;;;4923690;28;20237;-73
2022/11/12 03:31:23;;;;;;;2.53;2.07;;;;;;;;;;4936347;29;20277;-75
2022/11/12 03:34:09;;;;;;;2.70;2.50;;;;;;;;;;4936247;29;20234;-75
2022/11/12 03:36:55;;;;;;;2.60;2.40;;;;;;;;;;4963690;28;20277;-73
2022/11/12 03:39:39;;;;;;;2.53;2.30;;;;;;;;;;4963883;28;20796;-73
2022/11/12 03:42:24;;;;;;;2.60;2.40;;;;;;;;;;4923655;28;20285;-73
2022/11/12 03:45:11;;;;;;;2.50;2.30;;;;;;;;;;4963354;28;20229;-73
2022/11/12 03:47:56;;;;;;;3.23;1.83;;;;;;;;;;4937259;29;20233;-73
2022/11/12 03:50:40;;;;;;;2.20;2.07;;;;;;;;;;4936381;29;20278;-73
2022/11/12 03:53:24;;;;;;;2.53;2.33;;;;;;;;;;4922338;28;20791;-73
2022/11/12 03:56:10;;;;;;;2.70;2.50;;;;;;;;;;4936074;28;20282;-73
2022/11/12 03:58:57;;;;;;;3.13;2.83;;;;;;;;;;4929179;29;20759;-74
2022/11/12 04:01:41;;;;;;;2.60;2.40;;;;;;;;;;4949372;28;20257;-73
2022/11/12 04:08:34;;;;;;;2.77;2.57;;;;;;;;;;4936185;29;20225;-74
2022/11/12 04:10:32;;;;;;;3.83;2.93;;;;;;;;;;4951220;28;20281;-73
2022/11/12 04:13:28;;;;;;;4.27;2.40;;;;;;;;;;4921547;29;20237;-74
2022/11/12 04:22:27;;;;;;;3.03;2.50;;;;;;;;;;4950012;29;20234;-73
2022/11/12 04:28:14;;;;;;;2.40;2.20;;;;;;;;;;4932546;29;20617;-74
2022/11/12 04:31:01;;;;;;;4.80;2.63;;;;;;;;;;4947845;28;20228;-73
2022/11/12 04:33:47;;;;;;;3.03;2.70;;;;;;;;;;4935837;29;20321;-73
2022/11/12 04:36:32;;;;;;;2.67;2.47;;;;;;;;;;4941634;28;20269;-73
2022/11/12 04:39:16;;;;;;;2.77;2.57;;;;;;;;;;4914673;29;20233;-74
2022/11/12 04:45:10;;;;;;;2.60;2.40;;;;;;;;;;4936849;29;20266;-73
2022/11/12 04:47:56;;;;;;;3.37;2.43;;;;;;;;;;4921525;29;20247;-74
2022/11/12 04:50:45;;;;;;;2.90;2.60;;;;;;;;;;4935707;29;20305;-73
2022/11/12 04:53:29;;;;;;;3.10;2.80;;;;;;;;;;4934720;29;20229;-74
2022/11/12 04:56:16;;;;;;;2.50;2.30;;;;;;;;;;4948857;28;20236;-71
2022/11/12 04:59:02;;;;;;;3.33;2.57;;;;;;;;;;4935682;29;20230;-72
2022/11/12 05:01:47;;;;;;;2.20;2.10;;;;;;;;;;4935530;29;20333;-72
2022/11/12 05:04:31;;;;;;;2.40;2.20;;;;;;;;;;4921359;28;20242;-72
2022/11/12 05:07:16;;;;;;;2.33;2.13;;;;;;;;;;4947528;28;20346;-72
2022/11/12 05:10:00;;;;;;;2.33;2.13;;;;;;;;;;4933162;29;20241;-73
2022/11/12 05:12:48;;;;;;;2.20;1.97;;;;;;;;;;4950416;28;20226;-71
2022/11/12 05:15:32;;;;;;;2.70;2.50;;;;;;;;;;4937066;29;20253;-73
2022/11/12 05:18:21;;;;;;;1.97;1.77;;;;;;;;;;4936804;29;20606;-73
2022/11/12 05:22:04;;;;;;;2.23;2.13;;;;;;;;;;4932158;29;20234;-73
2022/11/12 05:24:09;;;;;;;2.23;1.97;;;;;;;;;;4938358;29;20703;-73
2022/11/12 05:26:53;;;;;;;2.30;2.20;;;;;;;;;;4950624;29;20298;-73
2022/11/12 05:29:39;;;;;;;2.23;2.10;;;;;;;;;;4963085;28;20310;-72
2022/11/12 05:32:25;;;;;;;2.30;2.10;;;;;;;;;;4934776;28;20288;-72
2022/11/12 05:35:09;;;;;;;2.43;2.10;;;;;;;;;;4939932;28;20290;-73
2022/11/12 05:37:53;;;;;;;3.17;2.53;;;;;;;;;;4950823;28;20305;-73
2022/11/12 05:40:43;;;;;;;2.20;2.00;;;;;;;;;;4950934;28;20281;-73
2022/11/12 05:43:27;;;;;;;2.60;2.40;;;;;;;;;;4951460;29;20229;-72
2022/11/12 05:46:11;;;;;;;2.40;2.17;;;;;;;;;;4939322;29;20229;-73
2022/11/12 05:48:55;;;;;;;3.80;2.20;;;;;;;;;;4938363;29;20268;-73
2022/11/12 05:51:39;;;;;;;3.80;2.30;;;;;;;;;;4965805;28;20391;-73
2022/11/12 05:54:24;;;;;;;2.07;1.97;;;;;;;;;;4942541;28;20599;-73
2022/11/12 05:57:08;;;;;;;2.40;2.20;;;;;;;;;;4952160;28;20237;-73
2022/11/12 05:59:52;;;;;;;4.37;2.40;;;;;;;;;;4941530;29;20258;-73
2022/11/12 06:02:36;;;;;;;2.50;2.30;;;;;;;;;;4936413;29;20624;-72
2022/11/12 06:05:23;;;;;;;2.63;2.30;;;;;;;;;;4922784;29;20274;-73
2022/11/12 06:08:10;;;;;;;2.40;2.20;;;;;;;;;;4923246;29;20233;-72
2022/11/12 06:10:54;;;;;;;3.07;2.27;;;;;;;;;;4953120;28;20282;-72
2022/11/12 06:13:41;;;;;;;2.47;2.27;;;;;;;;;;4925196;29;20368;-72
2022/11/12 06:16:26;;;;;;;6.47;2.13;;;;;;;;;;4936143;28;20288;-72
2022/11/12 06:19:13;;;;;;;2.70;2.50;;;;;;;;;;4939665;28;20280;-73
2022/11/12 06:21:57;;;;;;;4.50;2.17;;;;;;;;;;4937517;29;20689;-72
2022/11/12 06:24:41;;;;;;;2.50;2.30;;;;;;;;;;4951547;28;20313;-73
2022/11/12 06:27:25;;;;;;;2.30;2.20;;;;;;;;;;4940192;28;20305;-73
2022/11/12 06:30:10;;;;;;;2.07;1.97;;;;;;;;;;4938059;29;20277;-74
2022/11/12 06:32:54;;;;;;;3.43;2.63;;;;;;;;;;4950348;29;20856;-73
2022/11/12 06:35:41;;;;;;;2.50;2.37;;;;;;;;;;4938098;29;20238;-73
2022/11/12 06:38:25;;;;;;;3.43;2.83;;;;;;;;;;4938314;29;20294;-72
2022/11/12 06:41:12;;;;;;;2.83;2.63;;;;;;;;;;4934290;29;20226;-74
2022/11/12 06:43:56;;;;;;;3.37;2.53;;;;;;;;;;4955451;28;20727;-73
2022/11/12 06:46:40;;;;;;;2.27;2.07;;;;;;;;;;4924097;29;20229;-73
2022/11/12 06:49:24;;;;;;;3.43;3.13;;;;;;;;;;4936885;28;20237;-73
2022/11/12 06:52:09;;;;;;;3.60;2.30;;;;;;;;;;4964389;28;20898;-73
2022/11/12 06:54:53;;;;;;;2.53;2.33;;;;;;;;;;4937631;29;20302;-73
2022/11/12 06:57:37;;;;;;;5.23;3.00;;;;;;;;;;4928810;28;20606;-73
2022/11/12 07:00:22;;;;;;;2.70;2.50;;;;;;;;;;4950557;28;20241;-73
2022/11/12 07:03:07;;;;;;;3.03;2.73;;;;;;;;;;4926874;29;20724;-73
2022/11/12 07:05:51;;;;;;;3.63;3.30;;;;;;;;;;4923945;29;20237;-73
2022/11/12 07:08:35;;;;;;;4.57;4.27;;;;;;;;;;4950222;28;20253;-74
2022/11/12 07:11:19;;;;;;;5.17;4.77;;;;;;;;;;4936737;28;20261;-73
2022/11/12 07:14:11;;;;;;;4.80;4.30;;;;;;;;;;4949629;28;20269;-73
2022/11/12 07:16:57;;;;;;;3.43;3.13;;;;;;;;;;4936007;29;20611;-73
2022/11/12 07:19:41;;;;;;;4.83;4.43;;;;;;;;;;4931610;29;20239;-73
2022/11/12 07:22:26;;;;;;;4.13;3.83;;;;;;;;;;4949399;28;20250;-73
2022/11/12 07:25:13;;;;;;;3.90;3.57;;;;;;;;;;4935106;28;20254;-73
2022/11/12 07:27:57;;;;;;;4.67;3.47;;;;;;;;;;4937366;29;20336;-73
2022/11/12 07:30:41;;;;;;;3.20;3.00;;;;;;;;;;4942076;29;20229;-75
2022/11/12 07:33:25;;;;;;;5.13;3.77;;;;;;;;;;4940273;28;20226;-73
2022/11/12 07:36:11;;;;;;;3.77;3.50;;;;;;;;;;4928592;28;20261;-73
2022/11/12 07:38:55;;;;;;;3.90;3.43;;;;;;;;;;4924363;28;20237;-72
2022/11/12 07:41:39;;;;;;;4.17;3.77;;;;;;;;;;4933090;29;20225;-73
2022/11/12 07:44:24;;;;;;;3.33;3.13;;;;;;;;;;4938766;28;20603;-72
2022/11/12 07:47:08;;;;;;;3.10;2.90;;;;;;;;;;4925589;28;20222;-73
2022/11/12 07:49:54;;;;;;;3.33;3.07;;;;;;;;;;4937395;28;20269;-73
2022/11/12 07:52:41;;;;;;;5.87;2.93;;;;;;;;;;4939714;28;20230;-73
2022/11/12 07:55:26;;;;;;;4.60;3.40;;;;;;;;;;4953616;28;20728;-74
2022/11/12 07:58:10;;;;;;;3.37;3.07;;;;;;;;;;4938255;28;20698;-74
2022/11/12 08:00:54;;;;;;;3.47;3.17;;;;;;;;;;4937566;28;20247;-71
2022/11/12 08:03:38;;;;;;;4.30;3.40;;;;;;;;;;4909504;29;20309;-73
2022/11/12 08:06:23;;;;;;;3.33;3.03;;;;;;;;;;4924186;28;20359;-74
2022/11/12 08:09:10;;;;;;;4.93;3.67;;;;;;;;;;4925740;28;20225;-74
2022/11/12 08:11:55;;;;;;;4.10;3.63;;;;;;;;;;4924238;29;20241;-71
2022/11/12 08:14:39;;;;;;;3.80;3.40;;;;;;;;;;4930205;29;20284;-74
2022/11/12 08:17:23;;;;;;;3.50;3.20;;;;;;;;;;4927763;28;20281;-75
2022/11/12 08:20:08;;;;;;;4.43;3.73;;;;;;;;;;4923711;28;20273;-74
2022/11/12 08:22:52;;;;;;;4.47;4.07;;;;;;;;;;4948892;28;20325;-72
2022/11/12 08:25:40;;;;;;;8.70;7.90;;;;;;;;;;4948948;28;20234;-71
2022/11/12 08:28:25;;;;;;;7.07;6.57;;;;;;;;;;4949801;29;20768;-73
2022/11/12 08:31:13;;;;;;;4.77;4.37;;;;;;;;;;4935950;29;20229;-73
2022/11/12 08:33:57;;;;;;;5.60;4.30;;;;;;;;;;4950464;28;20422;-75
2022/11/12 08:36:41;;;;;;;4.67;4.30;;;;;;;;;;4936910;29;20285;-75
2022/11/12 08:39:25;;;;;;;4.80;4.40;;;;;;;;;;4941800;28;20289;-75
2022/11/12 08:42:10;;;;;;;4.43;3.87;;;;;;;;;;4934610;28;20216;-76
2022/11/12 08:44:54;;;;;;;4.50;4.10;;;;;;;;;;4923406;28;20233;-75
2022/11/12 08:47:38;;;;;;;4.50;4.00;;;;;;;;;;4953394;28;20366;-74
2022/11/12 08:50:25;;;;;;;4.50;4.10;;;;;;;;;;4928085;28;20233;-74
2022/11/12 08:53:13;;;;;;;4.03;3.73;;;;;;;;;;4934748;28;20225;-72
2022/11/12 08:56:00;;;;;;;4.30;3.90;;;;;;;;;;4963525;28;20241;-74
2022/11/12 08:58:46;;;;;;;4.80;4.13;;;;;;;;;;4949698;28;20241;-74
2022/11/12 09:01:33;;;;;;;4.77;4.37;;;;;;;;;;4948687;28;20237;-72
2022/11/12 09:04:18;;;;;;;4.47;4.07;;;;;;;;;;4926031;29;20603;-73
2022/11/12 09:07:02;;;;;;;4.73;4.20;;;;;;;;;;4946121;28;20813;-73
2022/11/12 09:09:47;;;;;;;4.13;3.80;;;;;;;;;;4949597;28;20286;-73
2022/11/12 09:12:31;;;;;;;3.70;3.40;;;;;;;;;;4949522;28;20236;-73
2022/11/12 09:15:15;;;;;;;4.23;3.83;;;;;;;;;;4953319;28;20319;-73
2022/11/12 09:18:01;;;;;;;3.77;3.47;;;;;;;;;;4955818;28;20233;-73
2022/11/12 09:20:45;;;;;;;3.87;3.00;;;;;;;;;;4941177;29;20217;-73
2022/11/12 09:23:29;;;;;;;3.70;3.37;;;;;;;;;;4952397;28;20304;-72
2022/11/12 09:26:13;;;;;;;3.43;3.10;;;;;;;;;;4966358;28;20225;-73
2022/11/12 09:28:58;;;;;;;4.23;3.83;;;;;;;;;;4952385;28;20288;-73
2022/11/12 09:31:41;;;;;;;3.63;3.33;;;;;;;;;;4930971;29;20313;-73
2022/11/12 09:34:28;;;;;;;4.03;3.73;;;;;;;;;;4937768;28;20289;-75
2022/11/12 09:37:13;;;;;;;3.57;3.27;;;;;;;;;;4932729;28;20306;-73
2022/11/12 09:40:02;;;;;;;3.70;3.40;;;;;;;;;;4923472;28;20302;-74
2022/11/12 09:42:51;;;;;;;3.80;3.40;;;;;;;;;;4923072;29;20233;-75
2022/11/12 09:45:35;;;;;;;4.10;3.33;;;;;;;;;;4923025;29;20242;-76
2022/11/12 09:48:52;;;;;;;3.77;3.47;;;;;;;;;;4931633;28;20296;-74
2022/11/12 09:51:40;;;;;;;3.10;2.90;;;;;;;;;;4922001;28;20230;-75
2022/11/12 09:54:29;;;;;;;4.00;3.60;;;;;;;;;;4924450;28;20229;-74
2022/11/12 09:57:32;;;;;;;3.93;3.30;;;;;;;;;;4918911;28;20236;-75
2022/11/12 10:00:17;;;;;;;3.70;3.40;;;;;;;;;;4889660;29;20223;-73
2022/11/12 10:03:08;;;;;;;5.87;4.17;;;;;;;;;;4933326;29;20237;-73
2022/11/12 10:06:19;;;;;;;4.20;3.83;;;;;;;;;;4946229;28;20280;-75
2022/11/12 10:09:08;;;;;;;4.07;3.67;;;;;;;;;;4916574;28;20230;-74
2022/11/12 10:12:35;;;;;;;4.33;3.93;;;;;;;;;;4920184;29;20245;-73
2022/11/12 10:18:51;;;;;;;4.97;3.50;;;;;;;;;;4951372;28;20229;-72
2022/11/12 10:22:04;;;;;;;3.63;3.00;;;;;;;;;;4950845;28;20288;-72
2022/11/12 10:24:51;;;;;;;3.53;2.87;;;;;;;;;;4927390;29;20245;-74
2022/11/12 10:27:39;;;;;;;3.73;3.00;;;;;;;;;;4909502;28;20778;-73
2022/11/12 10:30:26;;;;;;;3.93;3.20;;;;;;;;;;4933448;28;20685;-72
2022/11/12 10:33:13;;;;;;;3.67;2.60;;;;;;;;;;4921405;28;20221;-74
2022/11/12 10:36:39;;;;;;;6.13;3.10;;;;;;;;;;4922239;28;20301;-76
2022/11/12 10:40:41;;;;;;;3.27;2.60;;;;;;;;;;4925864;28;20237;-73
2022/11/12 10:43:27;;;;;;;2.50;2.30;;;;;;;;;;4948503;28;20242;-74
2022/11/12 10:46:36;;;;;;;2.50;2.30;;;;;;;;;;4936523;28;20285;-73
2022/11/12 10:49:23;;;;;;;2.43;2.23;;;;;;;;;;4940483;28;20241;-72
2022/11/12 10:52:25;;;;;;;3.13;2.20;;;;;;;;;;4949939;28;20853;-73
2022/11/12 10:55:23;;;;;;;2.23;2.03;;;;;;;;;;4928185;28;20228;-73
2022/11/12 10:58:10;;;;;;;3.73;2.47;;;;;;;;;;4950937;28;20237;-75
2022/11/12 11:01:06;;;;;;;3.47;2.33;;;;;;;;;;4949633;29;20288;-73
2022/11/12 11:03:54;;;;;;;3.07;2.30;;;;;;;;;;4934466;29;20297;-74
2022/11/12 11:06:38;;;;;;;3.40;3.10;;;;;;;;;;4915148;28;20238;-76
2022/11/12 11:09:25;;;;;;;3.30;2.10;;;;;;;;;;4912189;28;20230;-73
2022/11/12 11:12:29;;;;;;;2.80;2.27;;;;;;;;;;4936163;29;20218;-73
2022/11/12 11:15:17;;;;;;;5.23;2.97;;;;;;;;;;4909903;28;20297;-73
2022/11/12 11:18:01;;;;;;;2.70;2.50;;;;;;;;;;4949640;28;20305;-72
2022/11/12 11:20:46;;;;;;;2.53;2.33;;;;;;;;;;4953131;28;20229;-78
2022/11/12 11:23:39;;;;;;;3.90;2.50;;;;;;;;;;4924558;28;20286;-73
2022/11/12 11:26:45;;;;;;;2.60;2.40;;;;;;;;;;4922080;28;20237;-75
2022/11/12 11:29:57;;;;;;;4.53;3.60;;;;;;;;;;4922246;29;20238;-72
2022/11/12 11:33:14;;;;;;;9.60;8.10;;;;;;;;;;4931411;28;20242;-75
2022/11/12 11:36:16;;;;;;;4.93;3.30;;;;;;;;;;4949589;28;20237;-74
2022/11/12 11:39:15;;;;;;;2.93;2.73;;;;;;;;;;4950403;28;20285;-75
2022/11/12 11:42:06;;;;;;;2.43;2.30;;;;;;;;;;4954261;28;20233;-73
2022/11/12 11:44:55;;;;;;;2.60;2.40;;;;;;;;;;4932566;29;20623;-72
2022/11/12 11:47:49;;;;;;;2.70;2.33;;;;;;;;;;4938903;28;20618;-73
2022/11/12 11:50:39;;;;;;;2.57;2.27;;;;;;;;;;4929668;28;20250;-72
2022/11/12 11:53:28;;;;;;;2.20;1.97;;;;;;;;;;4938455;29;20648;-73
2022/11/12 11:56:25;;;;;;;4.00;2.10;;;;;;;;;;4950214;28;20246;-73
2022/11/12 11:59:22;;;;;;;3.90;2.23;;;;;;;;;;4938154;29;20229;-71
2022/11/12 12:02:06;;;;;;;2.70;2.33;;;;;;;;;;4936813;29;20425;-73
2022/11/12 12:05:01;;;;;;;3.27;2.13;;;;;;;;;;4953610;28;20312;-72
2022/11/12 12:07:51;;;;;;;2.43;2.00;;;;;;;;;;4911434;29;20281;-72
2022/11/12 12:10:56;;;;;;;2.90;2.00;;;;;;;;;;4955029;28;20238;-73
2022/11/12 12:14:08;;;;;;;2.70;1.90;;;;;;;;;;4964176;23;20244;-84
2022/11/12 12:16:52;;;;;;;2.50;1.93;;;;;;;;;;4978224;28;20240;-83
2022/11/12 12:19:57;;;;;;;4.07;3.43;;;;;;;;;;4981821;28;20237;-83
2022/11/12 12:23:00;;;;;;;2.60;2.37;;;;;;;;;;4976197;28;20376;-83
2022/11/12 12:25:45;;;;;;;5.57;5.07;;;;;;;;;;4957613;28;20237;-83
2022/11/12 12:28:35;;;;;;;11.07;8.80;;;;;;;;;;4947517;28;20355;-84
2022/11/12 12:31:24;;;;;;;7.23;6.53;;;;;;;;;;4980312;28;20249;-83
2022/11/12 12:34:21;;;;;;;5.40;4.87;;;;;;;;;;4955975;28;20276;-83
2022/11/12 12:37:38;;;;;;;4.90;3.33;;;;;;;;;;4954317;28;20237;-83
2022/11/12 12:40:31;;;;;;;3.47;2.17;;;;;;;;;;4952966;28;20769;-83
2022/11/12 12:43:31;;;;;;;3.43;2.70;;;;;;;;;;4958836;28;20228;-83
2022/11/12 12:46:16;;;;;;;3.20;2.90;;;;;;;;;;4982462;28;20237;-85
2022/11/12 12:49:00;;;;;;;2.60;2.40;;;;;;;;;;4944493;28;20658;-86
2022/11/12 12:51:44;;;;;;;3.83;3.30;;;;;;;;;;4957336;28;20262;-84
2022/11/12 12:54:34;;;;;;;3.83;3.07;;;;;;;;;;4946847;28;20236;-79
2022/11/12 12:57:31;;;;;;;3.30;2.97;;;;;;;;;;4983277;28;20245;-79
2022/11/12 13:00:48;;;;;;;3.70;2.40;;;;;;;;;;4968944;28;20850;-79
2022/11/12 13:03:47;;;;;;;2.67;1.80;;;;;;;;;;4950545;28;20265;-81
2022/11/12 13:06:37;;;;;;;1.90;1.73;;;;;;;;;;4988400;28;20236;-78
2022/11/12 13:09:23;;;;;;;1.70;1.60;;;;;;;;;;4969990;28;20229;-78
2022/11/12 13:15:06;;;;;;;2.47;1.57;;;;;;;;;;4976260;28;20249;-81
2022/11/12 13:17:51;;;;;;;3.10;1.63;;;;;;;;;;4960060;28;20240;-80
2022/11/12 13:20:37;;;;;;;1.60;1.50;;;;;;;;;;4948601;28;20237;-81
2022/11/12 13:24:09;;;;;;;1.50;1.40;;;;;;;;;;4954166;28;20283;-80
2022/11/12 13:26:55;;;;;;;2.33;1.70;;;;;;;;;;4972727;28;20237;-79
2022/11/12 13:29:40;;;;;;;1.97;1.40;;;;;;;;;;4958601;28;20232;-82
2022/11/12 13:32:30;;;;;;;2.50;1.40;;;;;;;;;;4947575;28;20229;-82
2022/11/12 13:35:23;;;;;;;2.03;1.60;;;;;;;;;;4964596;28;20607;-81
2022/11/12 13:38:10;;;;;;;1.70;1.60;;;;;;;;;;4978824;28;20244;-78
2022/11/12 13:41:04;;;;;;;1.57;1.47;;;;;;;;;;4983564;28;20236;-82
2022/11/12 13:43:48;;;;;;;1.57;1.47;;;;;;;;;;4979830;28;20229;-82
2022/11/12 13:46:34;;;;;;;2.07;1.60;;;;;;;;;;4955303;28;20229;-79
2022/11/12 13:49:21;;;;;;;1.83;1.70;;;;;;;;;;4959992;28;20233;-81
2022/11/12 13:52:05;;;;;;;3.90;1.40;;;;;;;;;;4957968;28;20809;-82
2022/11/12 13:55:09;;;;;;;2.03;1.80;;;;;;;;;;4959961;23;20237;-74
2022/11/12 13:57:56;;;;;;;2.03;1.80;;;;;;;;;;4955286;28;20314;-73
2022/11/12 14:00:54;;;;;;;1.80;1.70;;;;;;;;;;4971918;28;20317;-74
2022/11/12 14:03:45;;;;;;;1.70;1.60;;;;;;;;;;4961902;28;20292;-74
2022/11/12 14:06:46;;;;;;;2.30;1.48;;;;;;;;;;4939944;28;20760;-74
2022/11/12 14:10:02;;;;;;;1.53;1.40;;;;;;;;;;4930081;28;20246;-74
2022/11/12 14:13:08;;;;;;;1.60;1.40;;;;;;;;;;4956505;28;20250;-73
2022/11/12 14:16:08;;;;;;;3.22;1.70;;;;;;;;;;4959823;28;20240;-73
2022/11/12 14:19:20;;;;;;;1.83;1.37;;;;;;;;;;4960470;28;20238;-75
2022/11/12 14:22:07;;;;;;;1.63;1.53;;;;;;;;;;4971249;28;20332;-74
2022/11/12 14:24:53;;;;;;;1.50;1.30;;;;;;;;;;4961343;28;20252;-73
2022/11/12 14:27:37;;;;;;;1.48;1.38;;;;;;;;;;4944857;28;20232;-73
2022/11/12 14:30:22;;;;;;;1.57;1.47;;;;;;;;;;4931289;28;20234;-73
2022/11/12 14:33:08;;;;;;;1.60;1.50;;;;;;;;;;4960782;28;20279;-73
2022/11/12 14:35:53;;;;;;;1.70;1.40;;;;;;;;;;4945020;28;20272;-73
2022/11/12 14:38:39;;;;;;;2.53;1.50;;;;;;;;;;4953239;28;20244;-72
2022/11/12 14:41:24;;;;;;;1.73;1.50;;;;;;;;;;4954884;28;20254;-73
2022/11/12 14:44:13;;;;;;;2.33;1.60;;;;;;;;;;4943719;28;20289;-73
2022/11/12 14:46:58;;;;;;;2.57;1.80;;;;;;;;;;4943427;28;20335;-73
2022/11/12 14:49:42;;;;;;;1.63;1.40;;;;;;;;;;4947188;28;20281;-73
2022/11/12 14:52:41;;;;;;;1.53;1.43;;;;;;;;;;4942757;28;20282;-74
2022/11/12 14:55:29;;;;;;;2.37;1.43;;;;;;;;;;4946174;28;20228;-72
2022/11/12 14:58:13;;;;;;;3.53;1.70;;;;;;;;;;4959913;28;20233;-71
2022/11/12 15:01:00;;;;;;;1.90;1.50;;;;;;;;;;4943399;28;20734;-73
2022/11/12 15:03:44;;;;;;;1.57;1.47;;;;;;;;;;4956821;28;20602;-73
2022/11/12 15:06:30;;;;;;;1.50;1.30;;;;;;;;;;4928512;28;20230;-74
2022/11/12 15:09:21;;;;;;;1.50;1.40;;;;;;;;;;4958370;28;20236;-71
2022/11/12 15:12:10;;;;;;;1.50;1.40;;;;;;;;;;4943006;28;20289;-73
2022/11/12 15:15:05;;;;;;;1.97;1.40;;;;;;;;;;4945214;28;20265;-74
2022/11/12 15:18:06;;;;;;;1.87;1.40;;;;;;;;;;4946930;28;20237;-74
2022/11/12 15:21:18;;;;;;;1.80;1.70;;;;;;;;;;4945446;28;20363;-72
2022/11/12 15:24:14;;;;;;;2.00;1.80;;;;;;;;;;4950956;28;20233;-71
2022/11/12 15:27:00;;;;;;;1.70;1.30;;;;;;;;;;4952902;28;20233;-74
2022/11/12 15:29:43;;;;;;;1.77;1.47;;;;;;;;;;4957933;28;20318;-72
2022/11/12 15:32:31;;;;;;;2.00;1.80;;;;;;;;;;4944415;28;20260;-74
2022/11/12 15:35:25;;;;;;;1.60;1.50;;;;;;;;;;4960367;28;20285;-73
2022/11/12 15:38:16;;;;;;;6.97;2.00;;;;;;;;;;4951868;28;20242;-73
2022/11/12 15:41:00;;;;;;;3.67;2.47;;;;;;;;;;4930899;28;20715;-73
2022/11/12 15:43:45;;;;;;;3.33;2.90;;;;;;;;;;4928775;28;20237;-73
2022/11/12 15:46:30;;;;;;;4.13;2.87;;;;;;;;;;4941509;28;20296;-72
2022/11/12 15:49:14;;;;;;;3.43;2.60;;;;;;;;;;4929070;28;20788;-74
2022/11/12 15:51:58;;;;;;;2.80;2.60;;;;;;;;;;4957762;28;20634;-73
2022/11/12 15:54:44;;;;;;;4.10;2.70;;;;;;;;;;4941309;28;20246;-73
2022/11/12 15:57:29;;;;;;;3.93;2.57;;;;;;;;;;4954176;28;20226;-73
2022/11/12 16:00:24;;;;;;;4.00;2.70;;;;;;;;;;4944901;28;20292;-73
2022/11/12 16:03:18;;;;;;;2.80;2.30;;;;;;;;;;4943237;28;20249;-73
2022/11/12 16:06:05;;;;;;;2.20;2.00;;;;;;;;;;4958866;28;20324;-73
2022/11/12 16:08:49;;;;;;;2.50;1.90;;;;;;;;;;4960578;28;20265;-71
2022/11/12 16:11:37;;;;;;;3.90;1.87;;;;;;;;;;4951094;28;20645;-74
2022/11/12 16:14:21;;;;;;;2.30;2.10;;;;;;;;;;4969423;23;20610;-83
2022/11/12 16:17:14;;;;;;;1.90;1.80;;;;;;;;;;4950577;28;20236;-84
2022/11/12 16:20:00;;;;;;;2.53;2.17;;;;;;;;;;4977734;28;20261;-84
2022/11/12 16:22:44;;;;;;;2.60;2.40;;;;;;;;;;4952414;28;20264;-83
2022/11/12 16:25:33;;;;;;;2.50;2.30;;;;;;;;;;4965091;28;20239;-82
2022/11/12 16:28:18;;;;;;;4.63;2.60;;;;;;;;;;4960807;28;20220;-85
2022/11/12 16:31:02;;;;;;;3.33;2.47;;;;;;;;;;4931407;28;20355;-85
2022/11/12 16:33:46;;;;;;;2.47;2.10;;;;;;;;;;4944469;28;20609;-85
2022/11/12 16:36:32;;;;;;;2.50;2.30;;;;;;;;;;4970242;28;20220;-82
2022/11/12 16:39:16;;;;;;;3.60;2.43;;;;;;;;;;4965740;28;20801;-84
2022/11/12 16:42:02;;;;;;;2.47;2.27;;;;;;;;;;4966584;28;20329;-84
2022/11/12 16:44:47;;;;;;;2.70;2.40;;;;;;;;;;4955840;28;20749;-83
2022/11/12 16:47:31;;;;;;;3.30;3.00;;;;;;;;;;4966229;28;20253;-84
2022/11/12 16:50:17;;;;;;;4.10;3.70;;;;;;;;;;4945034;28;20365;-85
2022/11/12 16:53:01;;;;;;;3.60;3.17;;;;;;;;;;4943521;28;20241;-83
2022/11/12 16:55:45;;;;;;;3.07;2.70;;;;;;;;;;4969999;28;20256;-80
2022/11/12 17:02:17;;;;;;;3.53;2.67;;;;;;;;;;4976428;28;20221;-85
2022/11/12 17:05:06;;;;;;;2.10;2.00;;;;;;;;;;4938969;28;20785;-86
2022/11/12 17:07:55;;;;;;;3.38;2.70;;;;;;;;;;4949945;28;20521;-84
2022/11/12 17:10:40;;;;;;;2.63;2.40;;;;;;;;;;4947222;28;20261;-85
2022/11/12 17:13:24;;;;;;;3.30;2.70;;;;;;;;;;4939358;28;20233;-87
2022/11/12 17:16:10;;;;;;;5.37;2.60;;;;;;;;;;4945213;28;20718;-85